Time;durP1;ratioP1;P1;durP2;ratioP2;P2;SDS_P1;SDS_P2;PMS_P1;PMS_P2;Temp;Humidity;BMP_temperature;BMP_pressure;BME280_temperature;BME280_humidity;BME280_pressure;Samples;Min_cycle;Max_cycle;Signal;HPM_P1;HPM_P2
2021/11/12 00:03:16;;;;;;;30.60;20.23;;;3.80;99.90;;;;;;5030985;28;20286;-83
2021/11/12 00:13:58;;;;;;;30.50;20.17;;;4.20;99.90;;;;;;5088754;28;20221;-83
2021/11/12 00:16:27;;;;;;;27.73;18.87;;;4.30;99.90;;;;;;5091682;28;20219;-83
2021/11/12 00:18:54;;;;;;;27.60;19.80;;;4.30;99.90;;;;;;5091526;28;20234;-83
2021/11/12 00:21:23;;;;;;;28.77;19.23;;;4.20;99.90;;;;;;5091925;28;20246;-84
2021/11/12 00:23:50;;;;;;;30.00;19.60;;;4.20;99.90;;;;;;5092625;28;20228;-83
2021/11/12 00:26:17;;;;;;;32.67;20.23;;;4.20;99.90;;;;;;5092515;28;20230;-83
2021/11/12 00:28:51;;;;;;;31.63;19.73;;;4.20;99.90;;;;;;5092576;28;20696;-83
2021/11/12 00:31:25;;;;;;;27.67;18.23;;;4.30;99.90;;;;;;5092197;28;20609;-83
2021/11/12 00:34:28;;;;;;;28.70;19.03;;;4.10;99.90;;;;;;5092307;28;20196;-83
2021/11/12 00:37:01;;;;;;;25.47;18.57;;;4.10;99.90;;;;;;5092699;28;20676;-83
2021/11/12 00:39:33;;;;;;;27.97;18.80;;;4.10;99.90;;;;;;5111235;28;20213;-83
2021/11/12 00:42:08;;;;;;;25.03;17.83;;;4.10;99.90;;;;;;5115090;28;20732;-83
2021/11/12 00:44:38;;;;;;;26.47;17.97;;;4.10;99.90;;;;;;5115002;28;20205;-84
2021/11/12 00:47:08;;;;;;;27.23;17.77;;;4.00;99.90;;;;;;5133166;28;20222;-84
2021/11/12 00:49:39;;;;;;;23.90;17.03;;;4.00;99.90;;;;;;5127489;28;20197;-83
2021/11/12 00:52:10;;;;;;;25.93;18.57;;;3.80;99.90;;;;;;5115718;28;20230;-84
2021/11/12 00:54:38;;;;;;;25.57;17.13;;;3.90;99.90;;;;;;5118560;28;20634;-83
2021/11/12 00:57:05;;;;;;;30.40;18.90;;;4.00;99.90;;;;;;5113254;28;20251;-83
2021/11/12 00:59:32;;;;;;;26.20;18.10;;;4.00;99.90;;;;;;5113428;28;20297;-83
2021/11/12 01:01:59;;;;;;;31.33;19.03;;;4.00;99.90;;;;;;5113867;28;20246;-83
2021/11/12 01:04:27;;;;;;;30.37;19.23;;;4.00;99.90;;;;;;5115690;28;20598;-83
2021/11/12 01:06:54;;;;;;;27.23;18.27;;;4.00;99.90;;;;;;5123974;27;20291;-83
2021/11/12 01:09:23;;;;;;;25.13;17.60;;;3.90;99.90;;;;;;5117338;27;20240;-83
2021/11/12 01:11:51;;;;;;;26.10;17.93;;;3.70;99.90;;;;;;5116963;28;20209;-83
2021/11/12 01:14:22;;;;;;;26.60;18.57;;;3.60;99.90;;;;;;5129740;27;20336;-84
2021/11/12 01:16:49;;;;;;;28.73;19.13;;;3.70;99.90;;;;;;5131818;27;20284;-83
2021/11/12 01:19:17;;;;;;;28.67;19.67;;;3.70;99.90;;;;;;5132613;27;20231;-83
2021/11/12 01:21:44;;;;;;;30.40;19.97;;;3.70;99.90;;;;;;5118103;28;20197;-83
2021/11/12 01:24:11;;;;;;;27.83;18.47;;;3.70;99.90;;;;;;5117725;28;20191;-83
2021/11/12 01:26:40;;;;;;;30.17;19.47;;;3.70;99.90;;;;;;5117850;28;20279;-83
2021/11/12 01:29:07;;;;;;;27.90;18.90;;;3.60;99.90;;;;;;5124924;27;20703;-83
2021/11/12 01:31:34;;;;;;;30.83;19.77;;;3.70;99.90;;;;;;5125262;27;20227;-83
2021/11/12 01:34:08;;;;;;;31.43;19.77;;;3.60;99.90;;;;;;5122354;27;20201;-84
2021/11/12 01:36:37;;;;;;;28.80;19.60;;;3.60;99.90;;;;;;5117186;28;20190;-83
2021/11/12 01:39:08;;;;;;;26.93;19.40;;;3.60;99.90;;;;;;5117014;27;20720;-84
2021/11/12 01:41:36;;;;;;;28.67;19.00;;;3.50;99.90;;;;;;5122942;27;20206;-84
2021/11/12 01:44:08;;;;;;;28.57;20.27;;;3.40;99.90;;;;;;5122238;27;20253;-83
2021/11/12 01:46:50;;;;;;;26.83;19.30;;;3.40;99.90;;;;;;5115798;28;20199;-83
2021/11/12 01:49:25;;;;;;;27.70;19.50;;;3.30;99.90;;;;;;5120660;27;20198;-83
2021/11/12 01:51:55;;;;;;;28.37;19.57;;;3.20;99.90;;;;;;5134419;27;20197;-83
2021/11/12 01:59:51;;;;;;;30.33;19.10;;;3.30;99.90;;;;;;5116847;27;20298;-83
2021/11/12 02:02:18;;;;;;;29.17;18.57;;;3.30;99.90;;;;;;5124773;27;20256;-84
2021/11/12 02:04:46;;;;;;;30.40;19.40;;;3.30;99.90;;;;;;5122981;27;20202;-83
2021/11/12 02:07:13;;;;;;;29.83;19.87;;;3.30;99.90;;;;;;5126441;27;20230;-83
2021/11/12 02:09:40;;;;;;;27.57;19.57;;;3.30;99.90;;;;;;5121778;27;20241;-83
2021/11/12 02:12:17;;;;;;;26.77;20.03;;;3.10;99.90;;;;;;5116128;28;20288;-83
2021/11/12 02:14:46;;;;;;;28.17;18.93;;;3.00;99.90;;;;;;5097687;28;20214;-83
2021/11/12 02:17:25;;;;;;;29.50;19.80;;;2.90;99.90;;;;;;5115573;28;20592;-83
2021/11/12 02:19:57;;;;;;;29.67;19.93;;;2.90;99.90;;;;;;5115473;27;20213;-83
2021/11/12 02:22:28;;;;;;;29.20;19.17;;;3.10;99.90;;;;;;5115714;28;20195;-83
2021/11/12 02:25:00;;;;;;;32.27;19.27;;;3.10;99.90;;;;;;5114912;28;20226;-82
2021/11/12 02:27:33;;;;;;;31.87;19.63;;;3.10;99.90;;;;;;5114835;27;20712;-83
2021/11/12 02:30:01;;;;;;;32.00;21.27;;;3.10;99.90;;;;;;5114429;28;20194;-83
2021/11/12 02:32:30;;;;;;;30.40;20.27;;;3.10;99.90;;;;;;5114799;28;20199;-84
2021/11/12 02:34:59;;;;;;;31.53;20.57;;;3.20;99.90;;;;;;5114351;27;20641;-83
2021/11/12 02:37:31;;;;;;;31.27;19.93;;;3.10;99.90;;;;;;5115862;27;20266;-83
2021/11/12 02:39:58;;;;;;;30.03;20.17;;;3.00;99.90;;;;;;5121045;27;20245;-82
2021/11/12 02:42:26;;;;;;;31.50;19.93;;;2.80;99.90;;;;;;5115980;27;20214;-83
2021/11/12 02:44:55;;;;;;;32.93;20.53;;;2.80;99.90;;;;;;5097378;28;20210;-83
2021/11/12 02:47:23;;;;;;;34.80;21.27;;;2.70;99.90;;;;;;5115835;28;20229;-83
2021/11/12 02:49:55;;;;;;;31.17;21.40;;;2.80;99.90;;;;;;5115689;28;20213;-83
2021/11/12 02:52:22;;;;;;;37.60;22.80;;;2.90;99.90;;;;;;5097062;28;20194;-83
2021/11/12 02:54:51;;;;;;;38.67;23.53;;;3.00;99.90;;;;;;5116121;27;20200;-83
2021/11/12 02:57:21;;;;;;;36.53;22.77;;;3.00;99.90;;;;;;5131838;27;20194;-83
2021/11/12 02:59:48;;;;;;;36.17;23.30;;;3.10;99.90;;;;;;5115735;28;20228;-83
2021/11/12 03:02:15;;;;;;;38.43;23.80;;;3.10;99.90;;;;;;5115517;28;20228;-83
2021/11/12 03:04:42;;;;;;;41.60;23.10;;;3.20;99.90;;;;;;5116036;28;20208;-84
2021/11/12 03:07:09;;;;;;;38.10;23.97;;;3.30;99.90;;;;;;5101588;27;20243;-83
2021/11/12 03:09:36;;;;;;;38.37;23.13;;;3.30;99.90;;;;;;5116066;28;20195;-83
2021/11/12 03:12:07;;;;;;;41.37;24.57;;;3.50;99.90;;;;;;5117441;27;20193;-83
2021/11/12 03:14:35;;;;;;;40.90;23.17;;;3.40;99.90;;;;;;5115983;28;20306;-84
2021/11/12 03:17:03;;;;;;;36.67;23.90;;;3.60;99.90;;;;;;5115728;27;20230;-83
2021/11/12 03:19:31;;;;;;;37.73;22.73;;;3.60;99.90;;;;;;5118820;27;20255;-83
2021/11/12 03:22:02;;;;;;;35.50;22.53;;;3.60;99.90;;;;;;5115787;28;20251;-84
2021/11/12 03:24:33;;;;;;;40.33;24.77;;;3.60;99.90;;;;;;5097132;28;20247;-83
2021/11/12 03:27:11;;;;;;;39.10;23.77;;;3.60;99.90;;;;;;5114790;28;20193;-83
2021/11/12 04:00:13;;;;;;;35.87;22.53;;;3.40;99.90;;;;;;5020651;28;20222;-83
2021/11/12 04:02:48;;;;;;;34.67;23.33;;;3.40;99.90;;;;;;5029608;28;20198;-83
2021/11/12 04:05:34;;;;;;;35.80;23.47;;;3.40;99.90;;;;;;5030764;28;20200;-83
2021/11/12 04:19:24;;;;;;;35.80;23.17;;;3.40;99.90;;;;;;5103285;28;20264;-83
2021/11/12 05:11:27;;;;;;;39.43;24.30;;;3.20;99.90;;;;;;5054814;28;20207;-83
2021/11/12 05:44:13;;;;;;;47.93;30.70;;;3.30;99.90;;;;;;5116621;27;20211;-82
2021/11/12 05:46:44;;;;;;;44.77;29.00;;;3.20;99.90;;;;;;5125424;27;20197;-82
2021/11/12 05:52:01;;;;;;;72.13;45.07;;;3.30;99.90;;;;;;5116461;28;20194;-82
2021/11/12 05:57:15;;;;;;;52.00;33.00;;;3.20;99.90;;;;;;5116698;28;20632;-83
2021/11/12 05:59:43;;;;;;;48.73;30.47;;;3.10;99.90;;;;;;5117944;27;20728;-84
2021/11/12 06:02:10;;;;;;;45.97;28.30;;;3.20;99.90;;;;;;5118216;28;20256;-84
2021/11/12 06:04:38;;;;;;;40.20;25.87;;;3.20;99.90;;;;;;5117549;28;20336;-83
2021/11/12 06:07:06;;;;;;;45.00;26.83;;;3.30;99.90;;;;;;5118020;28;20277;-83
2021/11/12 06:09:33;;;;;;;43.50;27.27;;;3.30;99.90;;;;;;5116326;28;20213;-83
2021/11/12 06:12:00;;;;;;;50.53;28.10;;;3.30;99.90;;;;;;5098527;28;20616;-84
2021/11/12 06:17:11;;;;;;;48.43;29.07;;;3.50;99.90;;;;;;5116900;28;20244;-84
2021/11/12 06:19:39;;;;;;;49.20;30.20;;;3.50;99.90;;;;;;5118098;27;20220;-84
2021/11/12 06:22:06;;;;;;;50.90;32.60;;;3.90;99.90;;;;;;5118343;27;20196;-85
2021/11/12 06:24:36;;;;;;;56.33;33.87;;;4.00;99.90;;;;;;5116603;28;20221;-85
2021/11/12 06:27:04;;;;;;;48.57;31.43;;;4.00;99.90;;;;;;5099032;28;20234;-85
2021/11/12 06:32:14;;;;;;;45.57;28.57;;;3.60;99.90;;;;;;5118012;27;20196;-87
2021/11/12 06:34:42;;;;;;;42.57;27.30;;;3.70;99.90;;;;;;5121968;27;20586;-84
2021/11/12 06:37:09;;;;;;;45.57;28.03;;;3.70;99.90;;;;;;5114405;28;20284;-83
2021/11/12 06:39:36;;;;;;;51.47;29.73;;;3.70;99.90;;;;;;5118121;27;20217;-85
2021/11/12 06:42:11;;;;;;;47.80;30.20;;;4.00;99.90;;;;;;5116056;27;20235;-83
2021/11/12 06:50:15;;;;;;;43.20;28.27;;;3.60;99.90;;;;;;5012552;28;20197;-87
2021/11/12 06:58:07;;;;;;;51.67;29.33;;;3.60;99.90;;;;;;5021643;28;20236;-87
2021/11/12 07:00:35;;;;;;;48.43;29.97;;;3.70;99.90;;;;;;5019315;28;20221;-87
2021/11/12 07:03:03;;;;;;;49.07;30.90;;;4.10;99.90;;;;;;5025704;28;20201;-87
2021/11/12 07:05:31;;;;;;;52.73;32.07;;;4.30;99.90;;;;;;5016474;28;20204;-86
2021/11/12 07:07:59;;;;;;;46.07;30.90;;;4.20;99.90;;;;;;5015970;28;20225;-85
2021/11/12 07:10:27;;;;;;;47.67;30.40;;;4.30;99.90;;;;;;5024764;28;20253;-86
2021/11/12 07:12:54;;;;;;;45.63;29.17;;;4.20;99.90;;;;;;5016262;28;20233;-87
2021/11/12 07:23:31;;;;;;;53.80;32.33;;;4.40;99.90;;;;;;5028844;28;20201;-87
2021/11/12 07:25:59;;;;;;;49.70;32.57;;;4.50;99.90;;;;;;5117159;28;20267;-85
2021/11/12 07:28:27;;;;;;;51.83;32.17;;;4.60;99.90;;;;;;5110710;27;20223;-86
2021/11/12 07:33:39;;;;;;;49.90;30.67;;;5.10;99.90;;;;;;5102827;28;20205;-88
2021/11/12 07:36:11;;;;;;;47.40;30.67;;;5.30;99.90;;;;;;5117576;28;20202;-86
2021/11/12 07:38:47;;;;;;;43.50;29.67;;;5.50;99.90;;;;;;5117594;28;20190;-86
2021/11/12 07:41:22;;;;;;;41.00;28.83;;;5.90;99.90;;;;;;5118369;28;20213;-86
2021/11/12 07:44:12;;;;;;;38.77;27.80;;;6.30;99.90;;;;;;5116730;28;20196;-86
2021/11/12 07:46:42;;;;;;;41.13;28.93;;;6.70;99.90;;;;;;5117321;28;20218;-86
2021/11/12 07:49:13;;;;;;;34.30;25.37;;;7.10;99.90;;;;;;5099023;28;20219;-87
2021/11/12 07:51:40;;;;;;;31.43;23.60;;;7.60;99.90;;;;;;5134718;27;20279;-87
2021/11/12 07:56:50;;;;;;;29.03;21.60;;;8.20;99.90;;;;;;5114887;28;20248;-86
2021/11/12 07:59:17;;;;;;;29.27;21.13;;;8.10;99.90;;;;;;5118661;28;20227;-87
2021/11/12 08:01:45;;;;;;;31.00;21.53;;;7.60;99.90;;;;;;5117993;28;20653;-87
2021/11/12 08:12:19;;;;;;;25.87;20.87;;;7.90;99.90;;;;;;5117180;28;20571;-87
2021/11/12 08:20:18;;;;;;;24.33;20.03;;;8.70;99.90;;;;;;5113795;28;20213;-85
2021/11/12 08:25:29;;;;;;;25.33;20.33;;;8.20;99.90;;;;;;5113537;28;20250;-86
2021/11/12 08:28:20;;;;;;;27.33;20.37;;;8.90;99.90;;;;;;5113160;28;20201;-86
2021/11/12 08:30:58;;;;;;;25.30;19.87;;;9.40;99.90;;;;;;5112664;28;20600;-86
2021/11/12 08:33:33;;;;;;;25.10;20.33;;;9.10;99.90;;;;;;5112859;28;20616;-86
2021/11/12 08:38:54;;;;;;;26.77;20.73;;;8.30;99.90;;;;;;5111340;28;20229;-89
2021/11/12 08:41:26;;;;;;;27.30;20.33;;;7.90;99.90;;;;;;5113471;28;20286;-87
2021/11/12 08:43:56;;;;;;;29.73;20.50;;;7.80;99.90;;;;;;5114789;28;20201;-93
2021/11/12 08:46:27;;;;;;;30.23;21.53;;;7.60;99.90;;;;;;5119194;28;20204;-84
2021/11/12 08:48:58;;;;;;;29.37;22.17;;;7.50;99.90;;;;;;5099130;28;20676;-90
2021/11/12 08:51:33;;;;;;;28.27;21.83;;;7.60;99.90;;;;;;5112758;28;20194;-90
2021/11/12 08:54:01;;;;;;;30.07;23.27;;;7.40;99.90;;;;;;5113144;28;20194;-91
2021/11/12 08:56:29;;;;;;;33.30;23.93;;;7.30;99.90;;;;;;5114692;28;20205;-90
2021/11/12 08:58:56;;;;;;;30.63;24.37;;;7.40;99.90;;;;;;5114115;28;20240;-90
2021/11/12 09:01:24;;;;;;;33.80;25.77;;;7.40;99.90;;;;;;5113494;28;20661;-90
2021/11/12 09:03:54;;;;;;;37.57;28.80;;;7.50;99.90;;;;;;5114679;28;20583;-90
2021/11/12 09:06:21;;;;;;;42.57;33.30;;;7.40;99.90;;;;;;5113959;28;20206;-91
2021/11/12 09:08:50;;;;;;;48.57;36.37;;;7.40;99.90;;;;;;5112972;28;20232;-90
2021/11/12 09:11:17;;;;;;;55.70;41.83;;;7.50;99.90;;;;;;5112175;28;20205;-90
2021/11/12 09:13:46;;;;;;;66.73;46.57;;;7.60;99.90;;;;;;5111604;28;20660;-89
2021/11/12 09:16:15;;;;;;;71.77;46.90;;;7.50;99.90;;;;;;5113064;28;20249;-90
2021/11/12 09:18:43;;;;;;;71.17;46.50;;;7.20;99.90;;;;;;5113813;28;20640;-90
2021/11/12 09:21:11;;;;;;;77.73;49.57;;;7.20;99.90;;;;;;5114307;28;20707;-90
2021/11/12 09:23:39;;;;;;;95.37;53.37;;;7.50;99.90;;;;;;5114013;28;20278;-90
2021/11/12 09:26:09;;;;;;;84.77;56.43;;;7.50;99.90;;;;;;5117569;28;20227;-89
2021/11/12 09:28:36;;;;;;;83.60;52.03;;;7.60;99.90;;;;;;5117843;27;20206;-89
2021/11/12 09:31:04;;;;;;;85.27;43.10;;;7.70;99.90;;;;;;5132765;27;20227;-90
2021/11/12 09:33:31;;;;;;;76.63;37.50;;;7.60;99.90;;;;;;5120145;27;20649;-90
2021/11/12 09:36:00;;;;;;;79.77;30.17;;;7.50;99.90;;;;;;5117961;28;20206;-90
2021/11/12 09:38:28;;;;;;;68.50;30.37;;;7.40;99.90;;;;;;5117853;28;20267;-89
2021/11/12 09:40:56;;;;;;;65.43;31.20;;;7.40;99.90;;;;;;5117755;28;20643;-90
2021/11/12 09:43:25;;;;;;;119.57;32.70;;;7.50;99.90;;;;;;5117167;28;20225;-90
2021/11/12 09:45:53;;;;;;;94.00;31.60;;;7.50;99.90;;;;;;5117697;28;20213;-89
2021/11/12 09:48:21;;;;;;;77.40;30.93;;;7.60;99.90;;;;;;5117437;28;20240;-88
2021/11/12 09:50:50;;;;;;;88.97;32.70;;;7.70;99.90;;;;;;5117342;28;20654;-89
2021/11/12 09:53:17;;;;;;;83.70;32.40;;;7.80;99.90;;;;;;5117983;28;20216;-90
2021/11/12 09:55:44;;;;;;;78.20;34.30;;;8.00;99.90;;;;;;5117394;28;20225;-90
2021/11/12 09:58:12;;;;;;;86.40;36.43;;;8.30;99.90;;;;;;5135124;27;20667;-88
2021/11/12 10:00:42;;;;;;;76.60;37.00;;;8.40;99.90;;;;;;5124024;27;20326;-89
2021/11/12 10:03:10;;;;;;;113.53;38.83;;;8.50;99.90;;;;;;5116641;28;20243;-90
2021/11/12 10:05:40;;;;;;;85.27;36.23;;;8.60;99.90;;;;;;5096132;28;20202;-90
2021/11/12 10:08:26;;;;;;;109.47;38.23;;;8.60;99.90;;;;;;5121886;27;20208;-90
2021/11/12 10:10:55;;;;;;;76.80;36.40;;;8.40;99.90;;;;;;5099655;28;20232;-89
2021/11/12 10:13:33;;;;;;;88.37;36.87;;;8.30;99.90;;;;;;5116119;28;20205;-88
2021/11/12 10:16:16;;;;;;;97.40;33.13;;;8.20;99.90;;;;;;5116751;28;20205;-90
2021/11/12 10:19:04;;;;;;;85.43;34.83;;;8.30;99.90;;;;;;5119052;27;20229;-91
2021/11/12 10:21:33;;;;;;;71.50;33.90;;;8.30;99.90;;;;;;5116193;28;20255;-91
2021/11/12 10:24:02;;;;;;;58.20;32.07;;;8.50;99.90;;;;;;5119718;27;20191;-90
2021/11/12 10:26:31;;;;;;;62.83;32.37;;;8.40;99.90;;;;;;5130863;27;20249;-90
2021/11/12 10:29:02;;;;;;;62.53;31.30;;;8.50;99.90;;;;;;5116875;27;20220;-88
2021/11/12 10:31:39;;;;;;;52.33;33.13;;;8.50;99.90;;;;;;5116530;27;20225;-88
2021/11/12 10:34:15;;;;;;;93.17;33.37;;;8.60;99.90;;;;;;5116669;28;20201;-88
2021/11/12 10:37:00;;;;;;;64.77;32.43;;;8.80;99.90;;;;;;5117328;27;20296;-89
2021/11/12 10:39:35;;;;;;;75.90;31.47;;;9.00;99.90;;;;;;5121933;27;20662;-87
2021/11/12 10:42:05;;;;;;;72.47;31.03;;;8.90;99.90;;;;;;5115458;28;20689;-88
2021/11/12 10:44:38;;;;;;;100.47;32.50;;;9.00;99.90;;;;;;5114695;28;20225;-86
2021/11/12 10:47:07;;;;;;;82.93;31.93;;;9.20;99.90;;;;;;5114449;27;20286;-88
2021/11/12 10:49:37;;;;;;;66.00;30.83;;;9.20;99.90;;;;;;5116495;27;20244;-82
2021/11/12 10:52:08;;;;;;;79.50;29.63;;;9.20;99.90;;;;;;5113601;28;20196;-84
2021/11/12 10:54:52;;;;;;;79.47;29.33;;;9.20;99.90;;;;;;5127707;27;20204;-84
2021/11/12 10:57:21;;;;;;;54.40;31.00;;;9.20;99.90;;;;;;5115643;27;20200;-82
2021/11/12 11:00:07;;;;;;;57.57;30.87;;;9.50;99.90;;;;;;5113788;28;20208;-81
2021/11/12 11:02:38;;;;;;;59.43;30.30;;;9.70;99.90;;;;;;5113847;28;20225;-83
2021/11/12 11:05:09;;;;;;;76.93;36.73;;;9.70;99.90;;;;;;5113646;28;20204;-85
2021/11/12 11:07:36;;;;;;;68.73;33.67;;;10.10;99.90;;;;;;5113750;27;20288;-80
2021/11/12 11:10:05;;;;;;;53.17;28.53;;;10.50;99.90;;;;;;5113572;28;20275;-81
2021/11/12 11:12:39;;;;;;;51.67;29.17;;;10.10;99.90;;;;;;5113405;28;20625;-82
2021/11/12 11:15:22;;;;;;;49.07;28.40;;;9.90;99.90;;;;;;5113685;28;20264;-82
2021/11/12 11:18:19;;;;;;;43.00;26.50;;;9.90;99.90;;;;;;5115364;28;20265;-85
2021/11/12 11:20:49;;;;;;;44.90;26.87;;;9.90;99.90;;;;;;5116459;28;20709;-85
2021/11/12 11:23:17;;;;;;;47.73;26.40;;;10.20;99.90;;;;;;5096261;28;20198;-87
2021/11/12 11:25:51;;;;;;;46.53;27.20;;;10.00;99.90;;;;;;5111704;28;20211;-85
2021/11/12 11:28:18;;;;;;;46.27;26.43;;;10.30;99.90;;;;;;5134662;27;20208;-85
2021/11/12 11:30:47;;;;;;;43.30;27.07;;;10.40;99.90;;;;;;5114057;27;20337;-83
2021/11/12 11:33:16;;;;;;;42.83;26.67;;;10.40;99.90;;;;;;5130027;27;20258;-88
2021/11/12 11:35:45;;;;;;;42.07;27.63;;;10.40;99.90;;;;;;5116692;28;20202;-88
2021/11/12 11:38:14;;;;;;;42.37;27.50;;;10.50;99.90;;;;;;5116372;28;20197;-87
2021/11/12 11:40:43;;;;;;;44.17;27.80;;;10.50;99.90;;;;;;5115661;28;20264;-88
2021/11/12 11:43:11;;;;;;;42.67;27.40;;;10.60;99.90;;;;;;5117512;28;20223;-88
2021/11/12 11:45:39;;;;;;;43.27;27.40;;;10.60;99.90;;;;;;5116820;28;20197;-88
2021/11/12 11:48:06;;;;;;;52.27;30.53;;;10.60;99.90;;;;;;5116699;27;20209;-88
2021/11/12 11:50:35;;;;;;;43.30;28.87;;;10.90;99.90;;;;;;5125161;27;20218;-84
2021/11/12 11:53:30;;;;;;;43.63;29.07;;;10.90;99.90;;;;;;5125874;27;20769;-83
2021/11/12 11:56:26;;;;;;;44.77;27.73;;;11.00;99.90;;;;;;5114951;28;20667;-83
2021/11/12 11:58:54;;;;;;;47.73;28.80;;;11.10;99.90;;;;;;5113404;28;20251;-83
2021/11/12 12:01:34;;;;;;;48.23;29.57;;;11.10;99.90;;;;;;5114283;28;20250;-83
2021/11/12 12:04:38;;;;;;;43.10;28.13;;;11.20;99.90;;;;;;5114710;27;20682;-83
2021/11/12 12:07:41;;;;;;;44.20;28.70;;;11.30;99.90;;;;;;5114523;28;20232;-84
2021/11/12 12:10:20;;;;;;;47.07;30.63;;;11.50;99.90;;;;;;5119699;27;20193;-84
2021/11/12 12:13:04;;;;;;;39.47;26.87;;;11.80;99.90;;;;;;5115443;28;20224;-84
2021/11/12 12:15:37;;;;;;;38.07;27.57;;;11.90;99.90;;;;;;5115830;28;20305;-82
2021/11/12 12:18:26;;;;;;;41.30;28.30;;;12.30;99.90;;;;;;5115775;28;20264;-89
2021/11/12 12:21:23;;;;;;;38.33;26.70;;;12.50;99.90;;;;;;5110363;28;20217;-83
2021/11/12 12:35:59;;;;;;;35.80;27.07;;;12.20;99.90;;;;;;5115091;28;20250;-84
2021/11/12 12:41:57;;;;;;;34.60;26.63;;;12.30;99.90;;;;;;5101589;28;20216;-84
2021/11/12 13:20:48;;;;;;;25.03;19.00;;;13.10;99.90;;;;;;5109255;28;20323;-84
2021/11/12 13:26:04;;;;;;;23.07;17.60;;;13.20;99.90;;;;;;5099744;27;20282;-79
2021/11/12 13:28:33;;;;;;;20.70;16.23;;;13.30;99.90;;;;;;5107823;27;20229;-79
2021/11/12 13:31:04;;;;;;;18.57;14.97;;;13.30;99.90;;;;;;5113671;28;20194;-79
2021/11/12 13:33:40;;;;;;;19.07;14.73;;;13.30;99.90;;;;;;5114941;27;20281;-80
2021/11/12 13:36:19;;;;;;;21.20;13.67;;;13.20;99.90;;;;;;5106722;28;20270;-80
2021/11/12 13:38:48;;;;;;;18.37;14.10;;;13.30;99.90;;;;;;5114620;28;20201;-79
2021/11/12 13:41:17;;;;;;;18.43;14.43;;;13.40;99.90;;;;;;5097027;28;20312;-79
2021/11/12 13:43:47;;;;;;;19.13;14.17;;;13.40;99.90;;;;;;5114456;28;20193;-79
2021/11/12 13:46:16;;;;;;;18.90;13.40;;;13.60;99.90;;;;;;5113920;28;20673;-79
2021/11/12 13:48:45;;;;;;;18.73;13.50;;;13.60;99.90;;;;;;5111606;28;20672;-79
2021/11/12 13:51:13;;;;;;;17.33;12.67;;;13.70;99.90;;;;;;5114330;28;20229;-79
2021/11/12 13:53:40;;;;;;;17.83;13.20;;;13.70;99.90;;;;;;5114468;28;20692;-79
2021/11/12 13:56:11;;;;;;;17.67;13.77;;;13.50;99.90;;;;;;5108181;28;20229;-80
2021/11/12 13:58:40;;;;;;;15.93;13.10;;;13.50;99.90;;;;;;5114681;28;20233;-79
2021/11/12 14:01:19;;;;;;;15.93;12.80;;;13.50;99.90;;;;;;5127940;27;20279;-79
2021/11/12 14:03:47;;;;;;;17.77;13.53;;;13.50;99.90;;;;;;5134904;27;20211;-79
2021/11/12 14:06:15;;;;;;;18.87;12.40;;;13.50;99.90;;;;;;5115919;27;20290;-80
2021/11/12 14:08:44;;;;;;;17.43;12.60;;;13.40;99.90;;;;;;5115454;28;20631;-80
2021/11/12 14:11:20;;;;;;;15.10;12.57;;;13.40;99.90;;;;;;5113574;27;20615;-79
2021/11/12 14:13:48;;;;;;;15.53;12.00;;;13.30;99.90;;;;;;5113774;28;20204;-80
2021/11/12 14:16:22;;;;;;;14.67;11.90;;;13.30;99.90;;;;;;5110043;27;20208;-79
2021/11/12 14:21:52;;;;;;;18.70;13.20;;;13.30;99.90;;;;;;5112861;28;20292;-78
2021/11/12 14:24:37;;;;;;;17.40;13.03;;;13.20;99.90;;;;;;5111679;27;20197;-78
2021/11/12 14:27:09;;;;;;;17.03;11.43;;;13.30;99.90;;;;;;5112066;28;20200;-79
2021/11/12 14:29:54;;;;;;;11.70;9.77;;;13.30;99.90;;;;;;5111246;28;20201;-79
2021/11/12 14:38:07;;;;;;;12.67;8.90;;;13.60;99.90;;;;;;5109865;28;20201;-79
2021/11/12 14:43:37;;;;;;;11.17;9.60;;;13.60;99.90;;;;;;5091555;28;20331;-78
2021/11/12 14:46:15;;;;;;;16.03;10.47;;;13.60;99.90;;;;;;5108769;27;20204;-79
2021/11/12 14:48:55;;;;;;;12.70;9.93;;;13.60;99.90;;;;;;5109855;27;20210;-79
2021/11/12 14:51:25;;;;;;;15.43;10.73;;;13.60;99.90;;;;;;5112192;28;20262;-78
2021/11/12 14:53:53;;;;;;;15.67;11.07;;;13.50;99.90;;;;;;5113693;27;20194;-78
2021/11/12 14:56:22;;;;;;;13.30;10.33;;;13.50;99.90;;;;;;5120471;27;20775;-78
2021/11/12 14:58:54;;;;;;;13.37;10.07;;;13.40;99.90;;;;;;5100202;28;20218;-79
2021/11/12 15:01:24;;;;;;;13.07;10.00;;;13.40;99.90;;;;;;5112432;27;20574;-78
2021/11/12 15:03:53;;;;;;;15.37;10.33;;;13.30;99.90;;;;;;5112100;28;20225;-79
2021/11/12 15:06:23;;;;;;;15.23;10.97;;;13.20;99.90;;;;;;5111837;27;20352;-79
2021/11/12 15:08:52;;;;;;;16.10;10.37;;;13.10;99.90;;;;;;5112540;28;20209;-78
2021/11/12 15:11:24;;;;;;;16.10;10.57;;;13.10;99.90;;;;;;5112387;28;20225;-78
2021/11/12 15:13:53;;;;;;;15.77;10.63;;;13.10;99.90;;;;;;5114203;27;20224;-78
2021/11/12 15:16:22;;;;;;;14.43;9.73;;;13.10;99.90;;;;;;5111216;28;20740;-79
2021/11/12 15:18:52;;;;;;;15.87;9.20;;;13.10;99.90;;;;;;5114806;27;20232;-79
2021/11/12 15:21:23;;;;;;;14.27;10.37;;;13.10;99.90;;;;;;5113089;27;20197;-79
2021/11/12 15:24:02;;;;;;;15.10;10.47;;;13.00;99.90;;;;;;5113102;27;20738;-79
2021/11/12 15:29:15;;;;;;;19.67;14.70;;;13.00;99.90;;;;;;5031774;28;20283;-79
2021/11/12 15:31:50;;;;;;;20.23;13.83;;;13.00;99.90;;;;;;5021464;28;20647;-79
2021/11/12 15:34:17;;;;;;;19.53;12.70;;;13.00;99.90;;;;;;5029088;28;20242;-79
2021/11/12 15:36:54;;;;;;;17.27;12.20;;;13.00;99.90;;;;;;5021577;28;20283;-79
2021/11/12 15:39:30;;;;;;;16.27;12.17;;;13.00;99.90;;;;;;5028766;28;20208;-78
2021/11/12 15:42:18;;;;;;;15.63;11.13;;;13.00;99.90;;;;;;5022811;28;20715;-79
2021/11/12 15:44:46;;;;;;;14.73;11.57;;;13.00;99.90;;;;;;5035729;28;20663;-78
2021/11/12 15:47:22;;;;;;;11.50;9.30;;;13.00;99.90;;;;;;5028609;28;20237;-79
2021/11/12 15:49:51;;;;;;;13.03;8.73;;;13.00;99.90;;;;;;5028224;28;20211;-79
2021/11/12 15:52:23;;;;;;;12.87;9.03;;;13.00;99.90;;;;;;5029274;28;20200;-79
2021/11/12 15:55:00;;;;;;;11.73;8.47;;;12.90;99.90;;;;;;5028552;28;20218;-79
2021/11/12 15:58:04;;;;;;;13.10;7.93;;;12.90;99.90;;;;;;5033911;28;20207;-79
2021/11/12 16:11:41;;;;;;;12.00;8.80;;;12.80;99.90;;;;;;5103131;28;20194;-77
2021/11/12 16:14:10;;;;;;;10.37;7.90;;;12.80;99.90;;;;;;5112530;27;20226;-78
2021/11/12 16:19:29;;;;;;;13.90;8.97;;;12.80;99.90;;;;;;5110238;28;20197;-77
2021/11/12 16:25:04;;;;;;;10.67;7.73;;;12.70;99.90;;;;;;5096616;28;20197;-78
2021/11/12 16:27:33;;;;;;;10.77;7.57;;;12.70;99.90;;;;;;5111001;28;20193;-78
2021/11/12 16:30:04;;;;;;;13.03;7.83;;;12.70;99.90;;;;;;5110566;28;20198;-77
2021/11/12 16:32:38;;;;;;;15.20;9.30;;;12.70;99.90;;;;;;5110000;28;20633;-79
2021/11/12 16:37:55;;;;;;;14.53;9.83;;;12.60;99.90;;;;;;5108095;27;20198;-78
2021/11/12 16:40:26;;;;;;;15.37;11.33;;;12.60;99.90;;;;;;5114882;28;20202;-78
2021/11/12 16:43:05;;;;;;;14.00;10.67;;;12.60;99.90;;;;;;5114751;28;20237;-79
2021/11/12 16:48:34;;;;;;;17.57;11.57;;;12.60;99.90;;;;;;5112888;28;20190;-79
2021/11/12 16:51:16;;;;;;;16.43;12.83;;;12.60;99.90;;;;;;5114682;28;20228;-79
2021/11/12 16:53:57;;;;;;;17.87;10.93;;;12.50;99.90;;;;;;5114908;28;20193;-79
2021/11/12 16:59:12;;;;;;;19.97;15.40;;;12.50;99.90;;;;;;5113857;28;21012;-79
2021/11/12 17:01:51;;;;;;;22.70;17.80;;;12.50;99.90;;;;;;5115285;28;20190;-78
2021/11/12 17:04:25;;;;;;;23.33;19.63;;;12.50;99.90;;;;;;5113009;27;20669;-78
2021/11/12 17:06:56;;;;;;;27.00;21.20;;;12.40;99.90;;;;;;5114520;28;20679;-79
2021/11/12 17:09:42;;;;;;;24.03;19.83;;;12.30;99.90;;;;;;5112740;28;20292;-78
2021/11/12 17:15:04;;;;;;;20.07;14.80;;;12.30;99.90;;;;;;5110638;28;20221;-78
2021/11/12 17:20:23;;;;;;;20.57;13.77;;;12.30;99.90;;;;;;5113215;28;20259;-79
2021/11/12 17:45:04;;;;;;;19.17;12.47;;;12.30;99.90;;;;;;5009202;28;20193;-77
2021/11/12 17:47:35;;;;;;;21.37;12.03;;;12.30;99.90;;;;;;5007826;28;20201;-77
2021/11/12 17:50:08;;;;;;;19.90;11.53;;;12.30;99.90;;;;;;4999599;28;20207;-77
2021/11/12 17:53:01;;;;;;;21.83;13.03;;;12.30;99.90;;;;;;5008496;28;20699;-78
2021/11/12 18:03:48;;;;;;;29.17;23.37;;;12.20;99.90;;;;;;5026160;28;20590;-78
2021/11/12 18:06:17;;;;;;;25.37;18.73;;;12.20;99.90;;;;;;5028554;28;20223;-78
2021/11/12 18:09:12;;;;;;;21.73;14.17;;;12.30;99.90;;;;;;5028013;28;20672;-78
2021/11/12 18:12:06;;;;;;;19.93;13.00;;;12.30;99.90;;;;;;5028283;28;20699;-78
2021/11/12 18:14:54;;;;;;;21.63;11.77;;;12.30;99.90;;;;;;5028318;28;20251;-78
2021/11/12 21:44:23;;;;;;;24.83;12.77;;;11.50;99.90;;;;;;5096182;27;20224;-80
2021/11/12 21:46:50;;;;;;;30.33;12.80;;;11.40;99.90;;;;;;5113626;27;20200;-78